Arjay, KY (40902)

4:43 PM EDT on July 24, 2016 (GMT -0400)
APRSWXNET | | Change Station

Elev 1085 ft 36.66 °N, 83.66 °W | Updated 19 minutes ago

Mostly Cloudy
Mostly Cloudy
91 °F
Feels Like 103 °F
N
1
Wind Variable Wind from NW
Gusts 0.0 mph

Today
High -- | Low -- °F
--% Chance of Precip.
Yesterday
High -- | Low -- °F
Precip. -- in
Pressure 30.05 in
Visibility -9999.0 miles
Clouds Mostly Cloudy 4100 ft
Mostly Cloudy 4900 ft
Mostly Cloudy 6000 ft
Heat Index 103 °F
Dew Point 76 °F
Humidity 62%
Rainfall in
Snow Depth Not available.
6:34 AM 8:47 PM
Waning Gibbous, 73% visible
METAR KI35 242035Z AUTO 25003KT BKN041 BKN049 BKN060 32/20 A3005 RMK AO1
Pressure 30.05 in
Visibility -9999.0 miles
Clouds Mostly Cloudy 4100 ft
Mostly Cloudy 4900 ft
Mostly Cloudy 6000 ft
Heat Index 103 °F
Dew Point 76 °F
Humidity 62%
Rainfall in
Snow Depth Not available.
6:34 AM 8:47 PM
Waning Gibbous, 73% visible
METAR KI35 242035Z AUTO 25003KT BKN041 BKN049 BKN060 32/20 A3005 RMK AO1

10-Day Weather Forecast

Almanac

Astronomy

Jul. 24, 2016 Rise Set
Actual Time
Civil Twilight
Nautical Twilight
Astronomical Twilight
Moon
Length of Visible Light
Length of Day
Tomorrow will be .
, % of the Moon is Illuminated

Today's Extremes

State Highs State Lows

Community

WunderPhotos

Upload Photos

1,927,189 photos uploaded!

WunderBlog® & News

Nearby

Air Quality

  Air Quality AQ Index Pollutant
Not available.

Snow Depth

Station Depth Elevation

Earthquake Activity

City Distance Mag. Time & Date
Minimum magnitude displayed is 2.5.

Coastal Water Temperatures

Place Temperature

Stations

Nearby Weather Stations

Station Location Temp. Windchill Dew Point Humidity Wind Precip. Elev Updated Type
                   

Watches & Warnings

There are currently no watches in effect.